Terminal Aerodrome Forecast
Issued by NWS Memphis, TN

Home | Current Version | Previous Version | Text Only | Print | Product List | Glossary On
Versions: 1 2 3 4 5 6 7 8 9 10 11 12 13 14 15 16 17 18 19 20 21 22 23 24 25 26 27
000
FTUS44 KMEG 232300
TAFMEM
TAF
KMEM 232340Z 2400/2424 09004KT P6SM FEW250
     FM240600 14006KT P6SM SKC
     FM241300 16010KT P6SM BKN250
     FM241600 19012G20KT P6SM SCT050 SCT150
     FM242100 19015G25KT P6SM BKN040CB BKN150=

USA.gov is the U.S. government's official web portal to all federal, state and local government web resources and services.